Aeroporto :
LOGIN :

Iscrizione | Disclaimer

   EN    FR    IT 

 










Sommario :    VFR   VFR Marginale   IFR   IFR Intensivo   IFR Molto Intensivo
Visibilità : 
Base nubi : 
>= 8 km
>= 3000ft
5 / 8 km
1000 / 3000 ft
1500m / 5 km
500 / 1000 ft
800 / 1500m
200 / 500 ft
< 800m
< 200 ft
Simboli :   Temporali  Nebbia  Neve Forte  Precipitazioni Forti  Vento > 20 kt
SIGMETs :   Varie  Temporali  Ghiacco  Turbolenza  Onda orograficha  Ceneri Vulcaniche







- Altitudine del aeroporto : 1260 ft
- Codice IATA : LDE
- Carte del aeroporto


LFBT - Tarbes / Ossun

ULTIMO METAR :
  • 192300Z AUTO 16004KT 6000 NSC 02/02 Q1021 TEMPO 2000 BR

METARs OBSOLETI :
  • 192230Z AUTO 17003KT 6000 NSC 03/01 Q1021 TEMPO 2000 BR
  • 192200Z AUTO 16003KT 6000 NSC 03/02 Q1021 TEMPO 2000 BR
  • 192130Z AUTO 18003KT 7000 NSC 03/03 Q1021 TEMPO 2000 BR
  • 192100Z AUTO 18003KT 7000 NSC 03/02 Q1021 TEMPO 2000 BR
  • 192030Z AUTO 19002KT 8000 NSC 04/03 Q1021 TEMPO 2000 BR
  • 192000Z AUTO 00000KT 9000 NSC 04/03 Q1021 TEMPO 2000 BR

TAF TAF LFBT
Valido dal 19 a 18 ore il 20 a 18 ore UTC


191700Z 1918/2018 VRB02KT CAVOK
BECMG 1921/1923 20005KT
PROB30 1921/2001 2000 BR
BECMG 2011/2013 06005KT
Nessun NOTAM noto per questo aeroporto.



MetMap, La meteo Aeronautica in un colpo d'occhio ! - Copyright ORBIFLY Dicembre 2007 - Disclaimer

ORBIFLY MET'MAP TEAM :

Programmazione e sviluppo : Alexandra Zaïnal
Concezione e sviluppo : Baudouin d'Aumeries
Co-Programmazione e sviluppo : Marc-Olivier Méhu
Supporto tecnico e logistico : Manuel Goepfert
Aiuto per la traduzione : Arnaldo La Scala

Contatto : metmap@orbifly.com




FONTI E CREDITI :

   NOAA